Time;durP1;ratioP1;P1;durP2;ratioP2;P2;SDS_P1;SDS_P2;PMS_P1;PMS_P2;Temp;Humidity;BMP_temperature;BMP_pressure;BME280_temperature;BME280_humidity;BME280_pressure;Samples;Min_cycle;Max_cycle;Signal;HPM_P1;HPM_P2
2023/07/06 00:00:29;;;;;;;7.07;3.53;;;;;;;14.06;100.00;101378.69;5013709;28;20284;-72
2023/07/06 00:02:55;;;;;;;4.83;3.33;;;;;;;14.02;100.00;101376.91;5016064;28;20567;-72
2023/07/06 00:05:22;;;;;;;8.40;3.37;;;;;;;14.02;100.00;101379.50;5012658;28;20198;-72
2023/07/06 00:07:48;;;;;;;8.43;3.73;;;;;;;13.99;100.00;101378.59;5014887;28;20210;-72
2023/07/06 00:10:13;;;;;;;4.47;3.40;;;;;;;13.97;100.00;101383.72;5011684;28;20789;-72
2023/07/06 00:12:39;;;;;;;7.07;4.00;;;;;;;13.99;100.00;101388.88;5014395;28;20195;-72
2023/07/06 00:15:05;;;;;;;5.17;3.67;;;;;;;13.95;100.00;101384.53;5012154;28;20632;-73
2023/07/06 00:17:30;;;;;;;5.00;3.60;;;;;;;13.92;100.00;101392.19;5011089;28;20198;-73
2023/07/06 00:19:56;;;;;;;7.77;3.67;;;;;;;13.90;100.00;101393.91;5015956;28;20683;-73
2023/07/06 00:22:21;;;;;;;9.80;3.97;;;;;;;13.88;100.00;101395.56;5013794;28;20195;-72
2023/07/06 00:24:48;;;;;;;9.70;4.00;;;;;;;13.84;100.00;101391.22;5017337;28;20661;-72
2023/07/06 00:27:17;;;;;;;11.23;4.43;;;;;;;13.85;100.00;101392.97;5002718;28;20203;-72
2023/07/06 00:29:56;;;;;;;8.73;3.80;;;;;;;13.82;100.00;101404.09;5016464;28;20200;-72
2023/07/06 00:32:28;;;;;;;8.40;4.63;;;;;;;13.81;100.00;101397.19;5018289;28;20202;-73
2023/07/06 00:34:55;;;;;;;5.30;3.90;;;;;;;13.81;100.00;101401.50;5018874;28;20245;-72
2023/07/06 00:37:21;;;;;;;8.03;4.53;;;;;;;13.79;100.00;101401.47;5001884;28;20206;-72
2023/07/06 00:39:48;;;;;;;10.27;4.73;;;;;;;13.82;100.00;101410.94;5013119;28;20207;-73
2023/07/06 00:42:19;;;;;;;5.17;4.13;;;;;;;13.81;100.00;101404.91;5004957;28;20556;-73
2023/07/06 00:44:51;;;;;;;6.67;4.17;;;;;;;13.84;100.00;101415.25;5005110;28;20258;-72
2023/07/06 00:47:23;;;;;;;7.00;3.83;;;;;;;13.79;100.00;101418.59;5007328;28;20684;-72
2023/07/06 00:49:49;;;;;;;5.60;3.87;;;;;;;13.79;100.00;101409.19;5005616;28;20309;-72
2023/07/06 00:52:15;;;;;;;7.20;3.70;;;;;;;13.76;100.00;101416.00;5005717;28;20187;-73
2023/07/06 00:54:42;;;;;;;5.73;3.93;;;;;;;13.70;100.00;101415.88;5000095;28;20582;-72
2023/07/06 00:57:12;;;;;;;5.93;4.07;;;;;;;13.72;100.00;101407.34;5004258;28;20203;-73
2023/07/06 00:59:40;;;;;;;6.07;4.00;;;;;;;13.75;100.00;101416.81;5019149;28;20249;-72
2023/07/06 01:02:13;;;;;;;9.77;4.07;;;;;;;13.71;100.00;101417.63;5001351;28;20215;-72
2023/07/06 01:04:39;;;;;;;7.37;3.97;;;;;;;13.67;100.00;101414.13;5009883;28;20191;-73
2023/07/06 01:07:06;;;;;;;9.53;4.37;;;;;;;13.64;100.00;101414.09;5014115;28;20661;-73
2023/07/06 01:09:32;;;;;;;6.83;3.87;;;;;;;13.64;100.00;101413.22;4996533;28;20703;-73
2023/07/06 01:11:58;;;;;;;6.63;3.80;;;;;;;13.60;100.00;101416.56;5004988;28;20234;-73
2023/07/06 01:14:26;;;;;;;5.90;4.00;;;;;;;13.63;100.00;101414.06;5005291;28;20229;-72
2023/07/06 01:17:00;;;;;;;8.03;4.47;;;;;;;13.55;100.00;101421.66;5003301;28;20580;-72
2023/07/06 01:19:38;;;;;;;8.53;4.50;;;;;;;13.53;100.00;101422.47;5003255;28;20227;-73
2023/07/06 01:22:22;;;;;;;7.30;4.10;;;;;;;13.50;100.00;101422.41;4998667;28;20593;-72
2023/07/06 01:24:54;;;;;;;6.27;4.40;;;;;;;13.44;100.00;101425.75;5002000;28;20208;-72
2023/07/06 01:27:36;;;;;;;8.40;4.07;;;;;;;13.46;100.00;101436.06;5002984;28;20200;-72
2023/07/06 01:30:07;;;;;;;7.20;4.30;;;;;;;13.41;100.00;101436.00;4998830;28;20200;-74
2023/07/06 01:32:39;;;;;;;9.67;4.90;;;;;;;13.38;100.00;101435.06;5010294;28;20194;-72
2023/07/06 01:35:18;;;;;;;9.67;4.93;;;;;;;13.36;100.00;101436.75;5003010;28;20203;-73
2023/07/06 01:37:45;;;;;;;7.77;5.27;;;;;;;13.31;100.00;101441.81;5004502;28;20215;-72
2023/07/06 01:40:12;;;;;;;8.37;5.00;;;;;;;13.27;100.00;101447.75;4998510;28;20623;-73
2023/07/06 01:42:43;;;;;;;9.37;4.63;;;;;;;13.27;100.00;101434.03;5002182;28;20206;-72
2023/07/06 01:45:16;;;;;;;9.77;4.93;;;;;;;13.25;100.00;101446.84;5002886;28;20230;-73
2023/07/06 01:47:55;;;;;;;7.03;4.43;;;;;;;13.21;100.00;101455.34;5011023;28;20215;-73
2023/07/06 01:50:31;;;;;;;8.73;5.03;;;;;;;13.21;100.00;101450.19;5014286;28;20200;-73
2023/07/06 01:53:15;;;;;;;8.97;4.67;;;;;;;13.25;100.00;101454.56;5004532;28;20238;-73
2023/07/06 01:55:43;;;;;;;6.47;5.17;;;;;;;13.24;100.00;101457.09;4999453;28;20549;-73
2023/07/06 01:58:23;;;;;;;8.03;4.70;;;;;;;13.23;100.00;101458.81;5008230;28;20227;-73
2023/07/06 02:01:01;;;;;;;9.47;5.13;;;;;;;13.19;100.00;101461.28;4995178;28;20204;-72
2023/07/06 02:03:28;;;;;;;7.27;4.40;;;;;;;13.18;100.00;101464.72;5004128;28;20207;-72
2023/07/06 02:05:54;;;;;;;9.67;5.63;;;;;;;13.14;100.00;101463.78;4997913;28;20341;-72
2023/07/06 02:08:20;;;;;;;11.83;5.67;;;;;;;13.11;100.00;101462.88;5013468;28;20302;-73
2023/07/06 02:10:46;;;;;;;6.93;5.03;;;;;;;13.09;100.00;101460.28;4998250;28;20720;-74
2023/07/06 02:13:12;;;;;;;8.77;5.67;;;;;;;13.11;100.00;101453.44;5005650;28;20207;-73
2023/07/06 02:15:40;;;;;;;6.30;5.23;;;;;;;13.06;100.00;101462.78;5008914;28;20198;-73
2023/07/06 02:18:05;;;;;;;9.47;6.03;;;;;;;13.06;100.00;101462.78;5005593;28;20270;-73
2023/07/06 02:20:31;;;;;;;8.27;5.13;;;;;;;13.06;100.00;101456.75;5009790;28;20869;-73
2023/07/06 02:23:03;;;;;;;13.13;6.17;;;;;;;13.05;100.00;101468.75;5005482;28;20199;-73
2023/07/06 02:25:29;;;;;;;9.13;5.70;;;;;;;13.09;100.00;101469.69;5003000;28;20245;-73
2023/07/06 02:27:54;;;;;;;10.93;5.87;;;;;;;13.09;100.00;101468.00;4998297;28;20237;-72
2023/07/06 02:30:20;;;;;;;9.50;5.67;;;;;;;13.06;100.00;101459.31;5000771;28;20235;-73
2023/07/06 02:32:46;;;;;;;9.80;5.47;;;;;;;13.16;100.00;101468.97;5007736;28;20325;-72
2023/07/06 02:35:12;;;;;;;10.43;6.43;;;;;;;13.18;100.00;101469.84;4993791;28;20920;-72
2023/07/06 02:37:38;;;;;;;11.97;6.47;;;;;;;13.18;100.00;101467.28;4999372;28;20681;-73
2023/07/06 02:40:08;;;;;;;9.80;5.97;;;;;;;13.16;100.00;101472.38;4992084;28;20242;-72
2023/07/06 02:42:34;;;;;;;10.97;6.00;;;;;;;13.16;100.00;101471.53;5003425;28;20191;-73
2023/07/06 02:45:00;;;;;;;9.07;6.37;;;;;;;13.16;100.00;101477.53;5000568;28;20544;-73
2023/07/06 02:47:26;;;;;;;10.80;6.50;;;;;;;13.17;100.00;101475.84;5000068;28;20203;-73
2023/07/06 02:49:51;;;;;;;10.07;5.97;;;;;;;13.14;100.00;101476.66;5008420;28;20195;-73
2023/07/06 02:52:17;;;;;;;10.53;6.63;;;;;;;13.12;100.00;101473.16;5001225;28;20200;-72
2023/07/06 02:54:43;;;;;;;11.93;6.03;;;;;;;13.14;100.00;101481.78;5001358;28;20768;-73
2023/07/06 02:57:08;;;;;;;8.50;6.40;;;;;;;13.11;100.00;101475.75;5012567;28;20202;-72
2023/07/06 02:59:34;;;;;;;10.30;6.37;;;;;;;13.08;100.00;101480.81;5000100;28;20235;-72
2023/07/06 03:01:59;;;;;;;8.13;5.80;;;;;;;13.05;100.00;101480.72;5005765;28;20356;-73
2023/07/06 03:04:27;;;;;;;9.13;6.37;;;;;;;13.03;100.00;101478.13;5006647;28;20253;-73
2023/07/06 03:06:54;;;;;;;10.67;6.33;;;;;;;13.03;100.00;101487.56;4990530;28;20853;-73
2023/07/06 03:09:19;;;;;;;12.13;6.03;;;;;;;13.00;100.00;101492.63;5002748;28;20234;-73
2023/07/06 03:11:44;;;;;;;7.57;5.40;;;;;;;13.04;100.00;101492.75;4997516;28;20660;-73
2023/07/06 03:14:11;;;;;;;9.23;5.97;;;;;;;13.02;100.00;101498.69;5003616;28;20204;-72
2023/07/06 03:16:39;;;;;;;10.43;5.80;;;;;;;13.02;100.00;101501.28;5009261;28;20202;-72
2023/07/06 03:19:10;;;;;;;9.83;5.73;;;;;;;13.00;100.00;101495.22;5001417;28;20307;-72
2023/07/06 03:21:38;;;;;;;9.90;5.30;;;;;;;12.99;100.00;101508.91;5001479;28;20295;-73
2023/07/06 03:24:06;;;;;;;9.60;5.47;;;;;;;12.98;100.00;101502.88;4995207;28;20206;-73
2023/07/06 03:26:33;;;;;;;6.10;5.17;;;;;;;12.99;100.00;101506.34;5001425;28;20195;-72
2023/07/06 03:29:00;;;;;;;10.33;4.93;;;;;;;12.98;100.00;101502.03;5001121;28;20584;-73
2023/07/06 03:31:25;;;;;;;6.77;5.20;;;;;;;12.96;100.00;101504.53;5002088;28;20207;-73
2023/07/06 03:33:52;;;;;;;9.50;5.60;;;;;;;12.97;100.00;101508.88;4998503;28;20199;-73
2023/07/06 03:36:17;;;;;;;7.47;5.77;;;;;;;12.94;100.00;101508.75;5006158;28;20200;-73
2023/07/06 03:38:43;;;;;;;7.50;5.60;;;;;;;12.98;100.00;101509.75;4997549;28;20245;-73
2023/07/06 03:41:11;;;;;;;12.03;5.60;;;;;;;12.96;100.00;101507.09;4985916;28;20337;-73
2023/07/06 03:43:36;;;;;;;10.90;6.00;;;;;;;12.96;100.00;101512.25;5005562;28;20199;-73
2023/07/06 03:46:03;;;;;;;8.90;5.70;;;;;;;12.98;100.00;101508.03;4988362;28;20215;-73
2023/07/06 03:48:29;;;;;;;10.73;5.10;;;;;;;13.05;100.00;101517.63;5005904;28;20207;-73
2023/07/06 03:50:54;;;;;;;7.87;5.17;;;;;;;13.02;100.00;101517.53;4995719;28;20190;-74
2023/07/06 03:53:20;;;;;;;6.87;5.43;;;;;;;13.07;100.00;101520.22;4996188;28;20266;-73
2023/07/06 03:55:46;;;;;;;9.87;5.20;;;;;;;13.05;100.00;101519.31;4996868;28;20215;-73
2023/07/06 03:58:12;;;;;;;8.80;5.10;;;;;;;13.07;100.00;101522.78;4998249;28;20278;-73
2023/07/06 04:00:38;;;;;;;5.93;5.07;;;;;;;13.12;100.00;101518.59;5001461;28;20211;-72
2023/07/06 04:03:06;;;;;;;10.63;5.20;;;;;;;13.13;100.00;101526.34;5002058;28;20203;-73
2023/07/06 04:05:38;;;;;;;13.90;5.50;;;;;;;13.13;100.00;101521.22;5006749;28;20282;-73
2023/07/06 04:08:08;;;;;;;8.17;5.50;;;;;;;13.17;100.00;101519.56;5000665;28;20254;-73
2023/07/06 04:10:36;;;;;;;8.03;4.93;;;;;;;13.20;100.00;101527.31;4997318;28;20187;-73
2023/07/06 04:13:01;;;;;;;9.33;5.40;;;;;;;13.23;100.00;101523.13;4998205;28;20250;-73
2023/07/06 04:15:27;;;;;;;12.50;5.77;;;;;;;13.27;100.00;101522.34;5006615;28;20605;-73
2023/07/06 04:17:53;;;;;;;6.57;5.43;;;;;;;13.36;100.00;101530.25;4993304;28;20230;-73
2023/07/06 04:20:21;;;;;;;15.33;5.33;;;;;;;13.39;100.00;101539.72;5010078;28;20222;-73
2023/07/06 04:22:54;;;;;;;8.83;5.17;;;;;;;13.42;100.00;101532.91;5008718;28;20231;-73
2023/07/06 04:25:22;;;;;;;6.30;4.97;;;;;;;13.47;100.00;101536.44;5002596;28;20664;-73
2023/07/06 04:27:48;;;;;;;8.57;5.50;;;;;;;13.50;100.00;101527.91;5004600;28;20225;-73
2023/07/06 04:30:16;;;;;;;7.40;5.30;;;;;;;13.56;100.00;101528.91;5001862;28;20222;-73
2023/07/06 04:32:48;;;;;;;6.67;5.00;;;;;;;13.61;100.00;101540.13;5008511;28;20218;-73
2023/07/06 04:35:16;;;;;;;8.20;5.37;;;;;;;13.67;100.00;101536.81;5002363;28;20661;-73
2023/07/06 04:37:45;;;;;;;9.23;4.63;;;;;;;13.68;100.00;101538.53;5001677;28;20233;-74
2023/07/06 04:40:13;;;;;;;8.60;5.40;;;;;;;13.74;100.00;101533.50;4998192;28;20249;-73
2023/07/06 04:42:42;;;;;;;8.23;5.17;;;;;;;13.78;100.00;101536.16;5008684;28;20203;-73
2023/07/06 04:45:11;;;;;;;9.07;5.10;;;;;;;13.86;100.00;101537.16;5001034;28;20196;-73
2023/07/06 04:47:39;;;;;;;12.93;6.00;;;;;;;13.94;100.00;101524.41;5004015;28;20203;-73
2023/07/06 04:50:09;;;;;;;10.53;5.33;;;;;;;14.01;100.00;101527.13;5003179;28;20188;-73
2023/07/06 04:52:37;;;;;;;8.87;5.70;;;;;;;14.09;100.00;101534.97;5002110;28;20197;-73
2023/07/06 04:55:07;;;;;;;7.03;5.33;;;;;;;14.14;100.00;101541.91;5004510;28;20604;-73
2023/07/06 04:57:32;;;;;;;7.00;4.90;;;;;;;14.21;100.00;101537.75;5000866;28;20199;-73
2023/07/06 05:00:01;;;;;;;8.03;4.90;;;;;;;14.31;100.00;101543.09;5022395;28;20223;-73
2023/07/06 05:02:30;;;;;;;8.17;5.50;;;;;;;14.34;100.00;101539.69;5013269;28;20626;-73
2023/07/06 05:04:57;;;;;;;6.43;4.83;;;;;;;14.46;100.00;101543.31;4998872;28;20196;-74
2023/07/06 05:07:22;;;;;;;8.23;5.27;;;;;;;14.49;100.00;101540.78;5000750;28;20895;-73
2023/07/06 05:09:49;;;;;;;7.97;5.50;;;;;;;14.60;100.00;101535.78;4995737;28;20188;-73
2023/07/06 05:12:14;;;;;;;8.03;4.93;;;;;;;14.60;100.00;101539.22;4998148;28;20196;-73
2023/07/06 05:14:40;;;;;;;9.27;4.87;;;;;;;14.70;100.00;101545.38;5000680;28;20226;-73
2023/07/06 05:17:05;;;;;;;8.33;5.63;;;;;;;14.77;100.00;101540.31;5004572;28;20203;-73
2023/07/06 05:19:32;;;;;;;10.97;5.40;;;;;;;14.86;100.00;101540.44;5007632;28;20714;-72
2023/07/06 05:21:57;;;;;;;9.63;4.73;;;;;;;14.98;100.00;101543.19;4998201;28;20212;-73
2023/07/06 05:24:26;;;;;;;8.60;4.80;;;;;;;15.01;100.00;101550.97;4997794;28;20196;-73
2023/07/06 05:26:51;;;;;;;5.63;4.70;;;;;;;15.02;100.00;101550.13;4994523;28;20192;-73
2023/07/06 05:29:17;;;;;;;8.43;5.07;;;;;;;15.17;100.00;101550.31;5007920;28;20561;-73
2023/07/06 05:31:45;;;;;;;7.63;5.00;;;;;;;15.17;100.00;101557.19;5003893;28;20670;-73
2023/07/06 05:34:11;;;;;;;8.10;4.47;;;;;;;15.28;100.00;101559.03;4999559;28;20191;-73
2023/07/06 05:36:36;;;;;;;5.20;3.90;;;;;;;15.38;100.00;101552.31;4999902;28;20777;-74
2023/07/06 05:39:06;;;;;;;7.10;4.50;;;;;;;15.56;100.00;101561.13;4995221;28;20231;-74
2023/07/06 05:41:32;;;;;;;8.30;4.70;;;;;;;15.57;100.00;101568.00;4995689;28;20222;-73
2023/07/06 05:43:58;;;;;;;6.70;4.30;;;;;;;15.73;100.00;101569.03;5011695;28;20207;-73
2023/07/06 05:46:24;;;;;;;5.83;4.10;;;;;;;15.69;100.00;101562.09;5003594;28;20282;-73
2023/07/06 05:48:51;;;;;;;7.23;4.90;;;;;;;15.70;100.00;101574.19;4988623;28;20216;-73
2023/07/06 05:51:17;;;;;;;6.90;4.10;;;;;;;15.86;100.00;101568.31;5000165;28;20203;-73
2023/07/06 05:53:43;;;;;;;6.10;4.40;;;;;;;15.69;100.00;101565.56;5002854;28;20218;-73
2023/07/06 05:56:09;;;;;;;5.57;4.20;;;;;;;15.92;100.00;101582.16;5010835;28;20231;-73
2023/07/06 05:58:35;;;;;;;7.77;4.67;;;;;;;15.84;100.00;101573.44;4999598;28;20229;-73
2023/07/06 06:01:02;;;;;;;6.83;4.10;;;;;;;16.02;100.00;101571.03;4993254;28;20198;-73
2023/07/06 06:03:29;;;;;;;8.23;4.33;;;;;;;16.16;100.00;101574.63;5013076;28;20199;-74
2023/07/06 06:05:55;;;;;;;7.13;4.23;;;;;;;16.11;100.00;101573.72;5009790;28;20191;-73
2023/07/06 06:08:20;;;;;;;6.37;3.73;;;;;;;16.27;100.00;101583.34;5005469;28;20249;-73
2023/07/06 06:10:50;;;;;;;6.27;4.03;;;;;;;16.38;100.00;101573.06;5004963;28;20191;-73
2023/07/06 06:13:16;;;;;;;8.07;4.43;;;;;;;16.65;100.00;101583.63;4994189;28;20254;-74
2023/07/06 06:15:41;;;;;;;7.70;3.80;;;;;;;16.69;100.00;101580.22;5002598;28;20206;-74
2023/07/06 06:18:07;;;;;;;10.67;3.97;;;;;;;16.84;100.00;101581.19;5008896;28;20258;-73
2023/07/06 06:20:32;;;;;;;10.77;4.10;;;;;;;16.97;100.00;101576.94;5005381;28;20301;-73
2023/07/06 06:22:59;;;;;;;6.03;3.63;;;;;;;16.78;100.00;101591.50;4999931;28;20556;-73
2023/07/06 06:25:25;;;;;;;6.07;4.30;;;;;;;16.95;100.00;101592.44;4996126;28;20246;-73
2023/07/06 06:27:50;;;;;;;6.40;4.00;;;;;;;17.06;100.00;101583.03;4994158;28;20212;-74
2023/07/06 06:30:16;;;;;;;5.10;3.67;;;;;;;17.37;100.00;101595.22;5003226;28;20644;-74
2023/07/06 06:32:42;;;;;;;6.17;3.60;;;;;;;17.28;100.00;101586.56;5004365;28;20656;-73
2023/07/06 06:35:34;;;;;;;4.30;3.13;;;;;;;17.34;100.00;101587.47;5001472;28;20192;-73
2023/07/06 06:38:03;;;;;;;6.73;3.53;;;;;;;17.18;100.00;101579.63;5001704;28;20234;-74
2023/07/06 06:40:30;;;;;;;6.37;3.20;;;;;;;17.43;100.00;101577.19;4996097;28;20219;-74
2023/07/06 06:42:57;;;;;;;5.00;3.33;;;;;;;17.77;100.00;101571.22;5015016;28;20330;-74
2023/07/06 06:45:22;;;;;;;4.47;3.30;;;;;;;17.66;100.00;101582.41;5005364;28;20259;-73
2023/07/06 06:47:48;;;;;;;5.70;3.77;;;;;;;17.63;100.00;101590.16;4999564;28;20246;-74
2023/07/06 06:50:14;;;;;;;5.53;3.63;;;;;;;17.62;100.00;101585.84;4996785;28;20287;-74
2023/07/06 06:52:43;;;;;;;5.80;3.10;;;;;;;17.72;100.00;101591.06;4998452;28;20222;-73
2023/07/06 06:55:10;;;;;;;7.53;3.43;;;;;;;17.41;100.00;101575.44;4995480;28;20255;-74
2023/07/06 06:57:36;;;;;;;5.50;3.57;;;;;;;17.48;100.00;101579.78;4997151;28;20854;-73
2023/07/06 07:00:06;;;;;;;5.57;3.63;;;;;;;17.90;100.00;101585.94;4997315;28;20255;-73
2023/07/06 07:02:32;;;;;;;6.27;3.13;;;;;;;18.22;100.00;101555.72;4997579;28;20253;-73
2023/07/06 07:05:00;;;;;;;4.67;2.90;;;;;;;18.23;100.00;101531.50;4997013;28;20214;-74
2023/07/06 07:07:26;;;;;;;4.20;3.10;;;;;;;18.11;100.00;101562.63;4997491;28;20286;-73
2023/07/06 07:09:52;;;;;;;3.57;2.80;;;;;;;18.29;100.00;101569.53;4993652;28;20207;-73
2023/07/06 07:12:18;;;;;;;6.50;3.20;;;;;;;17.98;100.00;101562.59;4994105;28;20199;-73
2023/07/06 07:14:45;;;;;;;4.80;2.97;;;;;;;17.95;100.00;101558.28;5004496;28;20195;-73
2023/07/06 07:17:12;;;;;;;4.70;2.70;;;;;;;18.43;100.00;101571.25;5000445;28;20687;-73
2023/07/06 07:19:39;;;;;;;4.77;2.73;;;;;;;18.47;100.00;101559.19;5005597;28;20230;-73
2023/07/06 07:22:06;;;;;;;5.47;2.67;;;;;;;18.80;100.00;101559.13;4998563;28;20555;-72
2023/07/06 07:24:32;;;;;;;9.63;2.97;;;;;;;19.19;100.00;101520.00;4974755;28;20199;-72
2023/07/06 07:26:59;;;;;;;2.73;2.03;;;;;;;19.51;100.00;101500.81;4963585;28;20697;-72
2023/07/06 07:29:25;;;;;;;5.53;2.60;;;;;;;18.99;100.00;101504.53;4976494;28;20203;-72
2023/07/06 07:31:51;;;;;;;3.47;2.50;;;;;;;19.44;100.00;101475.75;4978105;28;20203;-72
2023/07/06 07:34:17;;;;;;;6.03;2.27;;;;;;;19.62;100.00;101452.22;4972878;28;20204;-72
2023/07/06 07:36:43;;;;;;;3.80;2.10;;;;;;;19.46;100.00;101484.41;4980211;28;20323;-73
2023/07/06 07:39:09;;;;;;;4.60;2.10;;;;;;;19.84;100.00;101478.91;4979115;28;20235;-73
2023/07/06 07:41:35;;;;;;;3.30;1.90;;;;;;;19.61;100.00;101463.50;4982283;28;20861;-73
2023/07/06 07:44:01;;;;;;;4.70;2.30;;;;;;;19.98;100.00;101440.63;4975317;28;20214;-74
2023/07/06 07:46:30;;;;;;;5.73;2.40;;;;;;;19.55;100.00;101441.88;4984558;28;20199;-73
2023/07/06 07:48:56;;;;;;;5.27;2.00;;;;;;;19.83;100.00;101446.00;4981692;28;20254;-74
2023/07/06 07:51:24;;;;;;;5.37;2.20;;;;;;;20.00;100.00;101460.56;4985833;28;20210;-74
2023/07/06 07:53:52;;;;;;;3.57;2.13;;;;;;;20.38;100.00;101455.91;4986036;28;20210;-74
2023/07/06 07:56:19;;;;;;;4.03;1.80;;;;;;;19.94;100.00;101454.56;4970765;28;20208;-74
2023/07/06 07:58:48;;;;;;;3.03;1.87;;;;;;;20.28;100.00;101453.41;4980137;28;20778;-74
2023/07/06 08:01:16;;;;;;;3.37;2.00;;;;;;;20.46;100.00;101437.59;4979851;28;20251;-74
2023/07/06 08:03:42;;;;;;;4.80;2.07;;;;;;;20.80;100.00;101444.97;4983226;28;20238;-74
2023/07/06 08:06:10;;;;;;;2.27;1.70;;;;;;;21.01;93.78;101400.44;4982654;28;20247;-75
2023/07/06 08:08:38;;;;;;;3.53;1.67;;;;;;;21.24;89.90;101397.50;4997951;28;20254;-74
2023/07/06 08:11:10;;;;;;;3.10;1.70;;;;;;;21.60;91.74;101405.59;4974850;28;20208;-75
2023/07/06 08:13:36;;;;;;;3.07;1.90;;;;;;;21.50;90.04;101404.03;4982607;28;20195;-74
2023/07/06 08:16:03;;;;;;;3.00;2.00;;;;;;;21.72;87.54;101402.81;4983064;28;20645;-74
2023/07/06 08:18:30;;;;;;;2.33;1.83;;;;;;;21.21;85.82;101393.22;4986371;28;20231;-74
2023/07/06 08:20:57;;;;;;;2.37;2.00;;;;;;;21.39;95.43;101441.56;4986220;28;20199;-74
2023/07/06 08:23:24;;;;;;;2.93;1.80;;;;;;;20.86;95.65;101446.66;4979524;28;20203;-74
2023/07/06 08:25:53;;;;;;;3.47;2.00;;;;;;;20.15;81.89;101391.97;4981261;28;20189;-74
2023/07/06 08:28:21;;;;;;;3.43;1.73;;;;;;;20.57;93.83;101441.78;4975669;28;20220;-74
2023/07/06 08:30:49;;;;;;;3.43;1.50;;;;;;;21.09;86.89;101411.63;4981277;28;20798;-74
2023/07/06 08:33:15;;;;;;;2.80;1.60;;;;;;;21.37;80.43;101396.44;4978972;28;20197;-74
2023/07/06 08:35:45;;;;;;;4.80;1.57;;;;;;;21.41;83.14;101418.94;4981300;28;20278;-75
2023/07/06 08:38:12;;;;;;;3.53;1.97;;;;;;;21.41;86.38;101426.75;4976794;28;20228;-74
2023/07/06 08:40:40;;;;;;;6.20;1.90;;;;;;;21.44;86.57;101440.63;4976866;28;20251;-74
2023/07/06 08:43:11;;;;;;;4.23;1.80;;;;;;;21.89;84.94;101434.66;4976232;28;20299;-74
2023/07/06 08:45:40;;;;;;;2.70;1.50;;;;;;;22.11;73.96;101398.66;4977803;28;20223;-74
2023/07/06 08:48:18;;;;;;;2.60;1.50;;;;;;;22.46;71.96;101398.84;4978895;28;20879;-74
2023/07/06 08:50:50;;;;;;;3.63;1.53;;;;;;;22.87;70.42;101390.13;4981391;28;20315;-73
2023/07/06 08:53:16;;;;;;;3.80;2.03;;;;;;;22.54;70.28;101396.06;4977355;28;20299;-73
2023/07/06 08:55:43;;;;;;;4.07;1.43;;;;;;;22.22;72.11;101407.13;4981824;28;20266;-73
2023/07/06 08:58:23;;;;;;;2.00;1.27;;;;;;;21.80;69.69;101394.88;4973849;28;20224;-74
2023/07/06 09:00:48;;;;;;;2.23;1.50;;;;;;;21.31;73.78;101417.38;4984955;28;20220;-74
2023/07/06 09:03:15;;;;;;;1.80;1.60;;;;;;;21.30;75.63;101441.72;4981107;28;20560;-74
2023/07/06 09:05:46;;;;;;;2.83;1.40;;;;;;;22.24;75.18;101432.31;4986702;28;20564;-74
2023/07/06 09:08:17;;;;;;;4.67;1.77;;;;;;;22.82;68.11;101394.59;4977210;28;20704;-74
2023/07/06 09:10:42;;;;;;;1.47;1.30;;;;;;;22.82;62.94;101384.13;4979151;28;20202;-74
2023/07/06 09:13:28;;;;;;;2.57;1.50;;;;;;;23.09;61.19;101391.38;4977039;28;20191;-74
2023/07/06 09:16:00;;;;;;;2.05;1.50;;;;;;;22.42;57.83;101377.13;4971719;28;20635;-74
2023/07/06 09:18:29;;;;;;;2.23;1.57;;;;;;;22.49;58.64;101383.13;4983204;28;20216;-74
2023/07/06 09:20:58;;;;;;;2.30;1.47;;;;;;;21.81;67.50;101438.31;4979150;28;20251;-74
2023/07/06 09:23:24;;;;;;;2.20;1.53;;;;;;;21.13;70.21;101456.72;4976707;28;20340;-74
2023/07/06 09:25:50;;;;;;;3.10;1.47;;;;;;;21.47;72.90;101464.03;4976765;28;20196;-74
2023/07/06 09:28:23;;;;;;;4.07;1.57;;;;;;;21.83;65.84;101434.78;4973807;28;20231;-74
2023/07/06 09:31:04;;;;;;;4.17;1.83;;;;;;;22.84;66.69;101442.47;4979116;28;20607;-74
2023/07/06 09:33:30;;;;;;;3.47;1.40;;;;;;;21.66;62.75;101413.31;4981254;28;20196;-74
2023/07/06 09:35:57;;;;;;;2.10;1.30;;;;;;;22.15;68.95;101449.88;4977719;28;20195;-74
2023/07/06 09:38:24;;;;;;;3.47;1.60;;;;;;;22.46;61.80;101424.94;4976889;28;20220;-73
2023/07/06 09:40:53;;;;;;;3.23;1.43;;;;;;;22.44;62.46;101426.72;4981670;28;20250;-73
2023/07/06 09:43:27;;;;;;;5.50;1.53;;;;;;;21.99;64.86;101433.66;4979368;28;20192;-73
2023/07/06 09:45:54;;;;;;;3.67;1.60;;;;;;;21.99;68.93;101459.75;4979049;28;20204;-73
2023/07/06 09:48:27;;;;;;;3.80;1.37;;;;;;;22.00;67.64;101452.75;4987264;28;20219;-74
2023/07/06 09:50:59;;;;;;;2.27;1.40;;;;;;;21.70;70.75;101469.78;4985822;28;20740;-74
2023/07/06 09:53:33;;;;;;;3.33;1.63;;;;;;;21.74;75.33;101494.09;4976413;28;20196;-75
2023/07/06 09:55:58;;;;;;;3.87;1.73;;;;;;;21.82;68.13;101469.59;4975637;28;20208;-74
2023/07/06 09:58:26;;;;;;;2.17;1.60;;;;;;;21.99;73.92;101490.16;4977781;28;20209;-74
2023/07/06 10:01:11;;;;;;;3.47;1.90;;;;;;;22.83;66.99;101467.72;4971422;28;20227;-74
2023/07/06 10:04:24;;;;;;;4.22;1.83;;;;;;;22.37;66.61;101464.25;4983471;28;21037;-74
2023/07/06 10:07:15;;;;;;;2.30;1.60;;;;;;;22.47;67.55;101467.59;4966912;28;20247;-75
2023/07/06 10:09:52;;;;;;;3.27;1.40;;;;;;;22.49;70.84;101487.56;4967628;28;20231;-74
2023/07/06 10:12:44;;;;;;;2.83;1.50;;;;;;;22.17;65.31;101458.53;4975610;28;20770;-74
2023/07/06 10:15:38;;;;;;;3.43;1.97;;;;;;;21.75;69.93;101483.59;4996410;28;20233;-74
2023/07/06 10:18:43;;;;;;;2.67;1.57;;;;;;;21.80;72.12;101494.84;4999002;28;20610;-74
2023/07/06 10:21:17;;;;;;;3.03;1.50;;;;;;;21.96;73.92;101513.69;5007550;28;20581;-74
2023/07/06 10:24:08;;;;;;;4.07;1.60;;;;;;;22.20;70.27;101493.28;4997178;28;20195;-74
2023/07/06 10:26:37;;;;;;;2.27;1.43;;;;;;;21.21;67.24;101479.19;5002775;28;20191;-74
2023/07/06 10:29:09;;;;;;;2.00;1.50;;;;;;;21.51;68.77;101496.97;4992807;28;20219;-75
2023/07/06 10:31:44;;;;;;;2.03;1.50;;;;;;;22.23;71.68;101502.78;5002992;28;20210;-75
2023/07/06 10:34:17;;;;;;;3.27;1.63;;;;;;;22.92;60.48;101441.38;5004341;28;20201;-74
2023/07/06 10:36:44;;;;;;;2.77;1.50;;;;;;;22.47;62.04;101447.53;5000122;28;20264;-74
2023/07/06 10:39:25;;;;;;;2.92;1.58;;;;;;;23.20;63.53;101450.38;5003641;28;20275;-75
2023/07/06 10:42:20;;;;;;;1.63;1.48;;;;;;;23.53;59.38;101431.28;5013011;28;20201;-75
2023/07/06 10:44:50;;;;;;;2.30;1.50;;;;;;;23.54;54.77;101401.63;4994375;28;20220;-75
2023/07/06 10:47:28;;;;;;;4.20;1.52;;;;;;;23.60;57.41;101442.47;4992778;28;20213;-75
2023/07/06 10:50:35;;;;;;;3.50;1.50;;;;;;;24.04;55.30;101422.16;5003044;28;20237;-75
2023/07/06 10:53:21;;;;;;;3.78;1.58;;;;;;;24.71;53.21;101402.84;4997963;28;20202;-76
2023/07/06 10:56:12;;;;;;;2.78;1.50;;;;;;;25.05;50.99;101393.06;4995932;28;20191;-75
2023/07/06 10:58:54;;;;;;;3.50;1.45;;;;;;;24.49;49.03;101393.88;4996564;28;20281;-75
2023/07/06 11:01:22;;;;;;;3.35;1.30;;;;;;;24.66;49.03;101386.38;4989981;28;20199;-74
2023/07/06 11:03:48;;;;;;;3.15;1.67;;;;;;;24.76;49.33;101401.81;5004108;28;20677;-74
2023/07/06 11:06:54;;;;;;;2.90;1.30;;;;;;;25.17;48.89;101390.03;5002172;28;20673;-75
2023/07/06 11:09:19;;;;;;;2.67;1.42;;;;;;;25.31;49.33;101399.22;5020523;28;20220;-74
2023/07/06 11:11:48;;;;;;;2.58;1.70;;;;;;;25.00;49.56;101431.66;5024960;28;20733;-74
2023/07/06 11:14:36;;;;;;;1.52;1.27;;;;;;;25.49;49.95;101419.63;4994742;28;20326;-74
2023/07/06 11:17:25;;;;;;;2.33;2.13;;;;;;;24.86;49.11;101413.72;4981661;28;20314;-74
2023/07/06 11:20:05;;;;;;;3.35;2.03;;;;;;;24.65;49.94;101432.72;4979801;28;20282;-74
2023/07/06 11:22:36;;;;;;;2.67;1.70;;;;;;;24.49;51.16;101473.28;4980877;28;20732;-74
2023/07/06 11:25:05;;;;;;;2.17;1.50;;;;;;;24.91;50.02;101435.41;4983781;28;20204;-74
2023/07/06 11:27:37;;;;;;;2.33;1.70;;;;;;;25.11;49.08;101419.09;4981794;28;20211;-74
2023/07/06 11:30:09;;;;;;;3.47;1.27;;;;;;;24.53;49.37;101427.78;5001071;28;20207;-73